Dades meteomassalio
Diari Summary for Gener 12, 2017 Units:  English    Metric   Both
« Previous Day
Next Day »
Diari Semanal Mensual Anual Personalitzat
  Maxima: Minima: Mijana:
Temperatura: TemperatureC °F 6.6 °F 12 °F
Rosada: DewpointC °F 4.8 °F 7.6 °F
Humitat: Humidity % 53 % 75 %
Velocitat del vent: WindSpeedKMH mph 0.0 mph 4.3 mph
Racha vent: WindSpeedGustKMH mph - -
Vent:- - WSW
Pressio: PressurehPa in 1017.2 in -
Pluja: 0.0 in    
Historical Graphs
 
 
Tabular Data for Gener 12, 2017
Time Temperature Dew Point Pressure Wind Wind Speed Wind Gust Humidity Rainfall Rate (Hourly) solar Conditions
TemperatureC °F DewpointC °F PressurehPa in Calm     Humidity % HourlyPrecipMM in SolarRadiationWatts/m^2 W/m2 Conditions
00:02 12.1 °F 8.3 °F 1025.6 in West 18.5 mph 18.5 mph 78 % 0.0 in 0.0 W/m2 CLR
00:07 12.0 °F 8.3 °F 1025.6 in West 18.5 mph 18.5 mph 78 % 0.0 in 0.0 W/m2 CLR
00:12 11.9 °F 8.2 °F 1025.6 in West 18.5 mph 18.5 mph 78 % 0.0 in 0.0 W/m2 CLR
00:17 11.8 °F 8.3 °F 1026.0 in WSW 9.7 mph 10.9 mph 79 % 0.0 in 0.0 W/m2 CLR
00:22 11.8 °F 8.3 °F 1026.0 in WSW 19.3 mph 19.3 mph 79 % 0.0 in 0.0 W/m2 CLR
00:27 11.8 °F 8.1 °F 1026.0 in WSW 8.0 mph 8.0 mph 78 % 0.0 in 0.0 W/m2 CLR
00:32 11.6 °F 8.1 °F 1025.6 in WSW 1.9 mph 1.9 mph 79 % 0.0 in 0.0 W/m2 CLR
00:37 11.6 °F 8.1 °F 1025.6 in WSW 5.6 mph   79 % 0.0 in 0.0 W/m2 CLR
00:42 11.7 °F 8.2 °F 1026.0 in Calm     79 % 0.0 in 0.0 W/m2 CLR
00:47 11.6 °F 8.1 °F 1026.0 in Calm     79 % 0.0 in 0.0 W/m2 CLR
00:52 11.3 °F 7.9 °F 1025.6 in Calm     80 % 0.0 in 0.0 W/m2 CLR
00:57 11.2 °F 8.1 °F 1025.6 in SW 5.6 mph 5.6 mph 81 % 0.0 in 0.0 W/m2 CLR
01:02 11.2 °F 8.0 °F 1026.0 in Calm     81 % 0.0 in 0.0 W/m2 CLR
01:07 11.1 °F 7.9 °F 1025.6 in Calm     81 % 0.0 in 0.0 W/m2 CLR
01:12 11.1 °F 7.9 °F 1025.6 in Calm     81 % 0.0 in 0.0 W/m2 CLR
01:17 11.0 °F 7.9 °F 1025.6 in Calm     81 % 0.0 in 0.0 W/m2 CLR
01:22 10.9 °F 7.8 °F 1025.6 in Calm     81 % 0.0 in 0.0 W/m2 CLR
01:27 10.8 °F 7.7 °F 1025.6 in Calm     81 % 0.0 in 0.0 W/m2 CLR
01:32 10.9 °F 7.8 °F 1025.6 in WSW 5.6 mph 5.6 mph 81 % 0.0 in 0.0 W/m2 CLR
01:37 10.9 °F 7.8 °F 1025.6 in SW 5.6 mph 5.6 mph 81 % 0.0 in 0.0 W/m2 CLR
01:42 11.0 °F 7.9 °F 1025.6 in SW 8.0 mph 8.0 mph 81 % 0.0 in 0.0 W/m2 CLR
01:47 11.0 °F 7.7 °F 1025.6 in Calm     80 % 0.0 in 0.0 W/m2 CLR
01:52 10.9 °F 7.8 °F 1025.6 in SW 9.3 mph 9.3 mph 81 % 0.0 in 0.0 W/m2 CLR
01:57 10.9 °F 7.6 °F 1025.6 in SW 3.7 mph 3.7 mph 80 % 0.0 in 0.0 W/m2 CLR
02:02 10.8 °F 7.7 °F 1025.6 in Calm     81 % 0.0 in 0.0 W/m2 CLR
02:07 10.7 °F 7.6 °F 1025.6 in Calm     81 % 0.0 in 0.0 W/m2 CLR
02:12 10.6 °F 7.5 °F 1025.6 in Calm     81 % 0.0 in 0.0 W/m2 CLR
02:17 10.5 °F 7.6 °F 1025.6 in WSW 5.6 mph 5.6 mph 82 % 0.0 in 0.0 W/m2 CLR
02:22 10.8 °F 7.7 °F 1025.6 in West 9.3 mph 9.3 mph 81 % 0.0 in 0.0 W/m2 CLR
02:27 11.0 °F 7.7 °F 1025.6 in West 16.7 mph 16.7 mph 80 % 0.0 in 0.0 W/m2 CLR
02:32 11.1 °F 7.7 °F 1025.6 in West 1.9 mph 1.9 mph 80 % 0.0 in 0.0 W/m2 CLR
02:37 11.1 °F 7.8 °F 1026.0 in West 5.6 mph 5.6 mph 80 % 0.0 in 0.0 W/m2 CLR
02:42 11.1 °F 7.6 °F 1026.0 in West 16.7 mph 16.7 mph 79 % 0.0 in 0.0 W/m2 CLR
02:47 11.2 °F 7.7 °F 1026.0 in West 18.5 mph 18.5 mph 79 % 0.0 in 0.0 W/m2 CLR
02:52 11.1 °F 7.6 °F 1025.6 in WSW 18.5 mph 18.5 mph 79 % 0.0 in 0.0 W/m2 CLR
02:57 10.9 °F 7.6 °F 1025.6 in WSW 13.0 mph 13.0 mph 80 % 0.0 in 0.0 W/m2 CLR
03:02 10.8 °F 7.5 °F 1025.6 in WSW 4.8 mph 4.8 mph 80 % 0.0 in 0.0 W/m2 CLR
03:07 10.6 °F 7.3 °F 1025.6 in WSW 9.3 mph 9.3 mph 80 % 0.0 in 0.0 W/m2 CLR
03:12 10.4 °F 7.3 °F 1025.6 in WSW 5.6 mph 5.6 mph 81 % 0.0 in 0.0 W/m2 CLR
03:17 10.3 °F 7.2 °F 1025.6 in WSW 9.3 mph 9.3 mph 81 % 0.0 in 0.0 W/m2 CLR
03:22 10.3 °F 7.3 °F 1025.3 in WSW 9.3 mph 9.3 mph 82 % 0.0 in 0.0 W/m2 CLR
03:27 10.2 °F 7.3 °F 1025.3 in WSW 7.4 mph 7.4 mph 82 % 0.0 in 0.0 W/m2 CLR
03:32 10.1 °F 7.2 °F 1025.3 in Calm     82 % 0.0 in 0.0 W/m2 CLR
03:37 10.0 °F 7.1 °F 1025.6 in WSW 9.3 mph 9.3 mph 82 % 0.0 in 0.0 W/m2 CLR
03:42 9.9 °F 7.1 °F 1025.3 in WSW 7.4 mph 7.4 mph 83 % 0.0 in 0.0 W/m2 CLR
03:47 9.9 °F 7.2 °F 1025.6 in WSW 13.0 mph 13.0 mph 83 % 0.0 in 0.0 W/m2 CLR
03:52 9.9 °F 7.2 °F 1025.6 in WSW 7.4 mph 7.4 mph 83 % 0.0 in 0.0 W/m2 CLR
03:57 10.0 °F 7.2 °F 1025.6 in WSW 9.3 mph 9.3 mph 83 % 0.0 in 0.0 W/m2 CLR
04:02 10.1 °F 7.2 °F 1025.3 in WSW 11.1 mph 11.1 mph 82 % 0.0 in 0.0 W/m2 CLR
04:07 10.2 °F 7.3 °F 1025.3 in West 9.3 mph 9.3 mph 82 % 0.0 in 0.0 W/m2 CLR
04:12 10.3 °F 7.4 °F 1025.3 in West 11.1 mph 11.1 mph 82 % 0.0 in 0.0 W/m2 CLR
04:17 10.4 °F 7.3 °F 1024.9 in West 7.4 mph 7.4 mph 81 % 0.0 in 0.0 W/m2 CLR
04:22 10.3 °F 7.2 °F 1024.9 in West 3.7 mph   81 % 0.0 in 0.0 W/m2 CLR
04:27 10.0 °F 6.9 °F 1025.3 in WSW 5.6 mph 5.6 mph 81 % 0.0 in 0.0 W/m2 CLR
04:32 9.5 °F 6.6 °F 1024.9 in WSW 5.6 mph   82 % 0.0 in 0.0 W/m2 CLR
04:37 9.3 °F 6.7 °F 1024.9 in WSW 6.4 mph 6.4 mph 84 % 0.0 in 0.0 W/m2 CLR
04:43 9.3 °F 6.8 °F 1025.3 in WSW 5.6 mph 5.6 mph 84 % 0.0 in 0.0 W/m2 CLR
04:48 9.4 °F 6.9 °F 1024.9 in WSW 5.6 mph 5.6 mph 84 % 0.0 in 0.0 W/m2 CLR
04:53 9.6 °F 7.0 °F 1025.3 in WSW 5.6 mph 5.6 mph 84 % 0.0 in 0.0 W/m2 CLR
04:58 9.5 °F 6.9 °F 1024.9 in WSW 8.0 mph 8.0 mph 84 % 0.0 in 0.0 W/m2 CLR
05:03 9.6 °F 7.1 °F 1024.9 in WSW 11.1 mph 11.1 mph 84 % 0.0 in 0.0 W/m2 CLR
05:08 9.7 °F 7.0 °F 1024.9 in WSW 9.3 mph 9.3 mph 83 % 0.0 in 0.0 W/m2 CLR
05:13 9.7 °F 6.9 °F 1024.9 in WSW 11.1 mph 11.1 mph 83 % 0.0 in 0.0 W/m2 CLR
05:18 9.7 °F 7.0 °F 1024.9 in WSW 11.1 mph 11.1 mph 83 % 0.0 in 0.0 W/m2 CLR
05:23 9.8 °F 7.0 °F 1024.9 in WSW 7.4 mph 7.4 mph 83 % 0.0 in 0.0 W/m2 CLR
05:28 9.8 °F 7.0 °F 1024.9 in WSW 9.3 mph 9.3 mph 83 % 0.0 in 0.0 W/m2 CLR
05:33 9.8 °F 7.0 °F 1024.9 in WSW 9.3 mph 9.3 mph 83 % 0.0 in 0.0 W/m2 CLR
05:38 9.6 °F 6.9 °F 1024.9 in SW 7.4 mph 7.4 mph 83 % 0.0 in 0.0 W/m2 CLR
05:43 9.3 °F 6.7 °F 1024.6 in SW 5.6 mph 5.6 mph 84 % 0.0 in 0.0 W/m2 CLR
05:48 9.4 °F 7.0 °F 1024.6 in Calm     85 % 0.0 in 0.0 W/m2 CLR
05:53 9.5 °F 6.9 °F 1024.6 in WSW 5.6 mph 5.6 mph 84 % 0.0 in 0.0 W/m2 CLR
05:58 9.6 °F 7.0 °F 1024.6 in WSW 1.6 mph   84 % 0.0 in 0.0 W/m2 CLR
06:03 9.7 °F 7.1 °F 1024.6 in WSW 8.0 mph 8.0 mph 84 % 0.0 in 0.0 W/m2 CLR
06:08 9.8 °F 7.2 °F 1024.6 in WSW 11.1 mph 11.1 mph 84 % 0.0 in 0.0 W/m2 CLR
06:13 9.8 °F 7.0 °F 1024.3 in West 8.0 mph 8.0 mph 83 % 0.0 in 0.0 W/m2 CLR
06:18 9.8 °F 7.1 °F 1024.3 in West 11.1 mph 11.1 mph 83 % 0.0 in 0.0 W/m2 CLR
06:23 9.8 °F 7.1 °F 1024.6 in WSW 9.3 mph 9.3 mph 83 % 0.0 in 0.0 W/m2 CLR
06:28 9.6 °F 6.7 °F 1024.3 in Calm     82 % 0.0 in 0.0 W/m2 CLR
06:33 9.2 °F 6.5 °F 1024.3 in Calm     83 % 0.0 in 0.0 W/m2 CLR
06:38 8.8 °F 6.3 °F 1024.6 in Calm     84 % 0.0 in 0.0 W/m2 CLR
06:43 8.7 °F 6.3 °F 1024.6 in Calm     85 % 0.0 in 0.0 W/m2 CLR
06:48 8.7 °F 6.3 °F 1024.6 in Calm     85 % 0.0 in 0.0 W/m2 CLR
06:53 8.3 °F 5.9 °F 1024.6 in Calm     85 % 0.0 in 0.0 W/m2 CLR
06:58 8.1 °F 5.9 °F 1024.6 in WSW 5.6 mph 5.6 mph 86 % 0.0 in 0.0 W/m2 CLR
07:03 8.4 °F 6.3 °F 1024.6 in Calm     87 % 0.0 in 0.0 W/m2 CLR
07:08 8.3 °F 5.9 °F 1024.6 in Calm     85 % 0.0 in 0.0 W/m2 CLR
07:13 8.2 °F 6.0 °F 1024.6 in SW 7.4 mph 7.4 mph 86 % 0.0 in 0.0 W/m2 CLR
07:18 8.2 °F 5.9 °F 1024.6 in Calm     86 % 0.0 in 0.0 W/m2 CLR
07:23 7.8 °F 5.6 °F 1024.6 in Calm     86 % 0.0 in 0.0 W/m2 CLR
07:28 7.6 °F 5.4 °F 1024.6 in Calm     86 % 0.0 in 0.0 W/m2 CLR
07:33 7.3 °F 5.3 °F 1024.6 in Calm     87 % 0.0 in 0.0 W/m2 CLR
07:38 7.3 °F 5.5 °F 1024.6 in Calm     88 % 0.0 in 0.0 W/m2 CLR
07:43 7.6 °F 5.7 °F 1024.6 in Calm     88 % 0.0 in 0.0 W/m2 CLR
07:48 7.8 °F 5.7 °F 1024.3 in SW 5.6 mph 5.6 mph 87 % 0.0 in 0.0 W/m2 CLR
07:53 7.6 °F 5.6 °F 1024.6 in SW 7.4 mph 7.4 mph 87 % 0.0 in 0.0 W/m2 CLR
07:58 7.8 °F 5.9 °F 1024.6 in Calm     88 % 0.0 in 0.0 W/m2 CLR
08:03 7.8 °F 5.6 °F 1024.6 in Calm     86 % 0.0 in 0.0 W/m2 CLR
08:08 7.3 °F 5.0 °F 1024.3 in Calm     85 % 0.0 in 0.0 W/m2 CLR
08:13 7.0 °F 4.8 °F 1024.3 in Calm     86 % 0.0 in 0.0 W/m2 CLR
08:18 6.8 °F 4.8 °F 1024.3 in Calm     87 % 0.0 in 0.0 W/m2 CLR
08:23 6.7 °F 4.9 °F 1024.3 in Calm     88 % 0.0 in 5.0 W/m2 BKN
08:28 6.7 °F 4.8 °F 1024.3 in Calm     88 % 0.0 in 7.0 W/m2 BKN
08:33 6.6 °F 4.9 °F 1024.3 in Calm     89 % 0.0 in 9.0 W/m2 BKN
08:38 6.6 °F 4.9 °F 1024.3 in Calm     89 % 0.0 in 11.0 W/m2 BKN
08:43 6.7 °F 5.0 °F 1024.3 in Calm     89 % 0.0 in 12.0 W/m2 BKN
08:48 6.7 °F 5.2 °F 1024.3 in Calm     90 % 0.0 in 14.0 W/m2 BKN
08:53 6.8 °F 5.2 °F 1024.3 in Calm     89 % 0.0 in 16.0 W/m2 BKN
08:58 6.9 °F 5.3 °F 1024.3 in Calm     89 % 0.0 in 25.0 W/m2 BKN
09:03 7.2 °F 5.5 °F 1024.3 in Calm     89 % 0.0 in 37.0 W/m2 BKN
09:08 7.5 °F 5.7 °F 1024.3 in Calm     88 % 0.0 in 39.0 W/m2 BKN
09:13 7.6 °F 5.6 °F 1024.3 in Calm     87 % 0.0 in 53.0 W/m2 BKN
09:18 7.8 °F 5.7 °F 1024.3 in Calm     87 % 0.0 in 63.0 W/m2 BKN
09:23 7.8 °F 5.6 °F 1024.3 in Calm     86 % 0.0 in 69.0 W/m2 BKN
09:28 7.9 °F 5.6 °F 1023.9 in Calm     85 % 0.0 in 93.0 W/m2 BKN
09:33 7.9 °F 5.6 °F 1023.9 in Calm     85 % 0.0 in 60.0 W/m2 BKN
09:38 8.0 °F 5.6 °F 1024.3 in Calm     85 % 0.0 in 77.0 W/m2 BKN
09:43 8.4 °F 6.2 °F 1023.9 in Calm     86 % 0.0 in 102.0 W/m2 BKN
09:48 8.8 °F 6.4 °F 1023.9 in Calm     85 % 0.0 in 120.0 W/m2 BKN
09:53 9.1 °F 6.3 °F 1023.9 in Calm     83 % 0.0 in 116.0 W/m2 BKN
09:58 9.2 °F 6.5 °F 1023.9 in Calm     83 % 0.0 in 171.0 W/m2 BKN
10:03 9.4 °F 6.7 °F 1023.9 in Calm     83 % 0.0 in 105.0 W/m2 SCT
10:08 9.7 °F 6.7 °F 1023.9 in Calm     82 % 0.0 in 162.0 W/m2 BKN
10:13 9.8 °F 6.8 °F 1023.6 in Calm     82 % 0.0 in 171.0 W/m2 BKN
10:18 9.9 °F 7.0 °F 1023.9 in Calm     82 % 0.0 in 225.0 W/m2 SCT
10:23 10.2 °F 7.2 °F 1023.9 in Calm     82 % 0.0 in 239.0 W/m2 SCT
10:28 10.6 °F 7.7 °F 1023.9 in Calm     82 % 0.0 in 251.0 W/m2 SCT
10:33 11.1 °F 7.7 °F 1023.9 in Calm     80 % 0.0 in 264.0 W/m2 SCT
10:38 11.4 °F 7.9 °F 1023.9 in Calm     79 % 0.0 in 272.0 W/m2 SCT
10:43 11.7 °F 7.8 °F 1023.9 in Calm     77 % 0.0 in 283.0 W/m2 SCT
10:48 11.9 °F 8.0 °F 1023.6 in Calm     77 % 0.0 in 294.0 W/m2 SCT
10:53 12.2 °F 8.3 °F 1023.6 in Calm     77 % 0.0 in 304.0 W/m2 SCT
10:58 12.6 °F 8.3 °F 1023.6 in Calm     75 % 0.0 in 313.0 W/m2 SCT
11:03 12.9 °F 8.6 °F 1023.6 in Calm     75 % 0.0 in 320.0 W/m2 FEW
11:08 13.0 °F 8.4 °F 1023.6 in Calm     74 % 0.0 in 330.0 W/m2 FEW
11:13 13.0 °F 8.4 °F 1023.6 in Calm     74 % 0.0 in 339.0 W/m2 FEW
11:19 13.1 °F 8.6 °F 1023.6 in Calm     74 % 0.0 in 348.0 W/m2 FEW
11:23 13.3 °F 8.6 °F 1023.2 in Calm     73 % 0.0 in 355.0 W/m2 FEW
11:29 13.6 °F 8.8 °F 1023.2 in Calm     73 % 0.0 in 364.0 W/m2 FEW
11:34 13.8 °F 8.8 °F 1023.2 in Calm     72 % 0.0 in 371.0 W/m2 FEW
11:39 14.0 °F 8.8 °F 1022.9 in Calm     71 % 0.0 in 378.0 W/m2 FEW
11:44 14.2 °F 9.1 °F 1022.9 in Calm     71 % 0.0 in 385.0 W/m2 FEW
11:49 14.6 °F 9.0 °F 1022.9 in Calm     69 % 0.0 in 390.0 W/m2 FEW
11:54 14.9 °F 8.9 °F 1022.6 in Calm     67 % 0.0 in 397.0 W/m2 FEW
11:59 15.2 °F 8.9 °F 1022.6 in Calm     66 % 0.0 in 401.0 W/m2 FEW
12:04 15.6 °F 8.8 °F 1022.6 in NNE 4.8 mph 4.8 mph 64 % 0.0 in 410.0 W/m2 FEW
12:09 15.6 °F 8.6 °F 1022.2 in NW 7.4 mph 7.4 mph 63 % 0.0 in 415.0 W/m2 FEW
12:14 15.6 °F 8.8 °F 1022.2 in NW 7.4 mph 7.4 mph 64 % 0.0 in 420.0 W/m2 FEW
12:19 15.7 °F 8.9 °F 1021.9 in NW 7.4 mph 7.4 mph 64 % 0.0 in 424.0 W/m2 CLR
12:24 15.8 °F 8.5 °F 1021.9 in Calm     62 % 0.0 in 429.0 W/m2 CLR
12:29 15.9 °F 8.9 °F 1021.6 in Calm     63 % 0.0 in 436.0 W/m2 CLR
12:34 16.2 °F 8.9 °F 1021.6 in Calm   1.0 mph 62 % 0.0 in 448.0 W/m2 CLR
12:39 16.5 °F 8.4 °F 1021.6 in SW 8.0 mph 8.0 mph 59 % 0.0 in 462.0 W/m2 CLR
12:44 16.6 °F 8.8 °F 1021.6 in SSW 7.4 mph 7.4 mph 60 % 0.0 in 480.0 W/m2 CLR
12:49 16.8 °F 8.8 °F 1021.2 in SSW 9.3 mph 9.3 mph 59 % 0.0 in 499.0 W/m2 CLR
12:54 16.8 °F 8.8 °F 1020.9 in South 7.4 mph 7.4 mph 59 % 0.0 in 448.0 W/m2 CLR
12:59 17.1 °F 8.7 °F 1020.9 in SSW 6.4 mph 6.4 mph 58 % 0.0 in 306.0 W/m2 CLR
13:04 17.0 °F 8.7 °F 1020.9 in SW 5.6 mph   58 % 0.0 in 288.0 W/m2 FEW
13:09 16.9 °F 8.6 °F 1020.5 in SW 7.4 mph 7.4 mph 58 % 0.0 in 304.0 W/m2 SCT
13:14 17.2 °F 8.8 °F 1020.5 in Calm     58 % 0.0 in 401.0 W/m2 SCT
13:19 17.3 °F 8.7 °F 1020.5 in SW 4.8 mph 4.8 mph 57 % 0.0 in 499.0 W/m2 FEW
13:24 17.4 °F 8.5 °F 1020.2 in WSW 5.6 mph   56 % 0.0 in 311.0 W/m2 FEW
13:29 17.6 °F 8.9 °F 1020.2 in Calm     57 % 0.0 in 441.0 W/m2 CLR
13:34 17.9 °F 8.7 °F 1020.2 in Calm     55 % 0.0 in 499.0 W/m2 CLR
13:39 18.2 °F 8.7 °F 1019.9 in Calm     54 % 0.0 in 480.0 W/m2 CLR
13:44 18.5 °F 8.7 °F 1019.9 in Calm     53 % 0.0 in 452.0 W/m2 CLR
13:49 18.6 °F 8.8 °F 1019.9 in West 7.4 mph 7.4 mph 53 % 0.0 in 367.0 W/m2 CLR
13:54 18.2 °F 8.8 °F 1019.5 in Calm     54 % 0.0 in 213.0 W/m2 SCT
13:59 18.1 °F 8.6 °F 1019.5 in Calm     54 % 0.0 in 274.0 W/m2 SCT
14:04 18.0 °F 8.6 °F 1019.5 in Calm     54 % 0.0 in 251.0 W/m2 SCT
14:09 17.9 °F 8.5 °F 1019.2 in NNW 5.6 mph 5.6 mph 54 % 0.0 in 192.0 W/m2 SCT
14:14 17.9 °F 8.7 °F 1019.2 in Calm     55 % 0.0 in 257.0 W/m2 BKN
14:19 17.9 °F 8.8 °F 1019.2 in Calm     55 % 0.0 in 292.0 W/m2 SCT
14:24 18.1 °F 9.1 °F 1018.8 in Calm     56 % 0.0 in 466.0 W/m2 FEW
14:29 18.2 °F 9.0 °F 1018.8 in NNE 9.3 mph 9.3 mph 55 % 0.0 in 302.0 W/m2 CLR
14:34 18.0 °F 9.1 °F 1018.8 in NNE 6.4 mph 6.4 mph 56 % 0.0 in 204.0 W/m2 FEW
14:39 17.9 °F 9.2 °F 1018.8 in Calm     57 % 0.0 in 250.0 W/m2 SCT
14:44 17.8 °F 9.2 °F 1018.8 in NNE 3.7 mph 3.7 mph 57 % 0.0 in 281.0 W/m2 SCT
14:49 17.8 °F 9.2 °F 1018.8 in Calm     57 % 0.0 in 199.0 W/m2 SCT
14:54 17.8 °F 9.2 °F 1018.8 in Calm     57 % 0.0 in 163.0 W/m2 SCT
14:59 17.7 °F 9.1 °F 1018.8 in Calm     57 % 0.0 in 165.0 W/m2 BKN
15:04 17.6 °F 9.2 °F 1018.8 in NE 3.7 mph   58 % 0.0 in 167.0 W/m2 BKN
15:09 17.4 °F 9.1 °F 1018.8 in NE 7.4 mph 7.4 mph 58 % 0.0 in 158.0 W/m2 BKN
15:14 17.3 °F 9.2 °F 1018.8 in NNE 9.3 mph 9.3 mph 59 % 0.0 in 156.0 W/m2 BKN
15:19 17.1 °F 9.3 °F 1018.8 in NNE 5.6 mph 5.6 mph 60 % 0.0 in 163.0 W/m2 BKN
15:24 16.9 °F 9.1 °F 1018.5 in Calm     60 % 0.0 in 153.0 W/m2 SCT
15:29 16.9 °F 9.1 °F 1018.5 in Calm     60 % 0.0 in 146.0 W/m2 SCT
15:34 16.9 °F 9.1 °F 1018.5 in Calm     60 % 0.0 in 125.0 W/m2 SCT
15:39 16.9 °F 9.3 °F 1018.5 in Calm     61 % 0.0 in 111.0 W/m2 BKN
15:44 16.9 °F 9.1 °F 1018.5 in Calm     60 % 0.0 in 118.0 W/m2 BKN
15:49 16.9 °F 9.4 °F 1018.5 in Calm     61 % 0.0 in 172.0 W/m2 BKN
15:54 17.1 °F 9.3 °F 1018.5 in Calm     60 % 0.0 in 234.0 W/m2 SCT
15:59 17.3 °F 9.2 °F 1018.5 in Calm     59 % 0.0 in 165.0 W/m2 CLR
16:04 17.3 °F 8.9 °F 1018.2 in Calm     58 % 0.0 in 329.0 W/m2 CLR
16:09 17.4 °F 9.1 °F 1018.2 in Calm     58 % 0.0 in 241.0 W/m2 CLR
16:14 17.5 °F 9.2 °F 1018.2 in Calm     58 % 0.0 in 181.0 W/m2 CLR
16:19 17.6 °F 9.4 °F 1018.2 in Calm     59 % 0.0 in 202.0 W/m2 CLR
16:24 17.6 °F 9.0 °F 1017.8 in Calm     57 % 0.0 in 123.0 W/m2 CLR
16:29 17.6 °F 9.2 °F 1017.8 in Calm     58 % 0.0 in 107.0 W/m2 CLR
16:34 17.4 °F 9.1 °F 1017.8 in Calm     58 % 0.0 in 97.0 W/m2 CLR
16:39 17.4 °F 9.1 °F 1017.8 in Calm     58 % 0.0 in 90.0 W/m2 CLR
16:44 17.3 °F 9.0 °F 1017.8 in Calm     58 % 0.0 in 77.0 W/m2 CLR
16:50 17.2 °F 8.8 °F 1017.8 in Calm     58 % 0.0 in 67.0 W/m2 CLR
16:55 17.1 °F 9.0 °F 1017.8 in Calm     59 % 0.0 in 58.0 W/m2 CLR
17:00 16.8 °F 8.8 °F 1017.8 in Calm     59 % 0.0 in 47.0 W/m2 CLR
17:05 16.7 °F 8.7 °F 1017.5 in Calm     59 % 0.0 in 40.0 W/m2 CLR
17:10 16.6 °F 8.8 °F 1017.8 in Calm     60 % 0.0 in 37.0 W/m2 OVC
17:15 16.4 °F 8.8 °F 1017.5 in Calm     61 % 0.0 in 33.0 W/m2 OVC
17:20 16.1 °F 8.8 °F 1017.5 in Calm     62 % 0.0 in 30.0 W/m2 OVC
17:25 15.9 °F 8.8 °F 1017.5 in Calm     63 % 0.0 in 26.0 W/m2 OVC
17:30 15.8 °F 9.2 °F 1017.5 in Calm     65 % 0.0 in 23.0 W/m2 OVC
17:35 15.5 °F 8.9 °F 1017.8 in Calm     65 % 0.0 in 18.0 W/m2 OVC
17:40 15.2 °F 8.9 °F 1017.8 in Calm     66 % 0.0 in 12.0 W/m2 OVC
17:45 15.1 °F 8.9 °F 1017.8 in Calm     67 % 0.0 in 9.0 W/m2 OVC
17:50 14.8 °F 8.9 °F 1017.5 in Calm     68 % 0.0 in 0.0 W/m2 OVC
17:55 14.5 °F 8.9 °F 1017.8 in Calm     69 % 0.0 in 0.0 W/m2 CLR
18:00 14.2 °F 8.8 °F 1017.8 in Calm     70 % 0.0 in 0.0 W/m2 CLR
18:05 13.9 °F 9.0 °F 1017.8 in Calm     72 % 0.0 in 0.0 W/m2 CLR
18:10 13.7 °F 8.8 °F 1017.8 in Calm     72 % 0.0 in 0.0 W/m2 CLR
18:15 13.4 °F 8.7 °F 1017.8 in Calm     73 % 0.0 in 0.0 W/m2 CLR
18:20 12.8 °F 8.4 °F 1017.5 in Calm     75 % 0.0 in 0.0 W/m2 CLR
18:25 12.4 °F 8.3 °F 1017.8 in Calm     76 % 0.0 in 0.0 W/m2 CLR
18:30 12.1 °F 8.3 °F 1017.5 in Calm     78 % 0.0 in 0.0 W/m2 CLR
18:35 11.7 °F 8.0 °F 1017.5 in Calm     78 % 0.0 in 0.0 W/m2 CLR
18:40 11.6 °F 8.2 °F 1017.5 in Calm     80 % 0.0 in 0.0 W/m2 CLR
18:45 11.6 °F 8.3 °F 1017.5 in Calm     80 % 0.0 in 0.0 W/m2 CLR
18:50 11.7 °F 8.2 °F 1017.5 in Calm     79 % 0.0 in 0.0 W/m2 CLR
18:56 11.2 °F 7.5 °F 1017.5 in Calm     78 % 0.0 in 0.0 W/m2 CLR
19:01 10.8 °F 7.7 °F 1017.5 in Calm     81 % 0.0 in 0.0 W/m2 CLR
19:06 10.5 °F 7.6 °F 1017.5 in Calm     82 % 0.0 in 0.0 W/m2 CLR
19:11 10.3 °F 7.6 °F 1017.8 in Calm     83 % 0.0 in 0.0 W/m2 CLR
19:16 10.2 °F 7.4 °F 1017.8 in Calm     83 % 0.0 in 0.0 W/m2 CLR
19:21 10.1 °F 7.3 °F 1017.5 in Calm     83 % 0.0 in 0.0 W/m2 CLR
19:26 9.9 °F 7.4 °F 1017.8 in Calm     84 % 0.0 in 0.0 W/m2 CLR
19:31 9.8 °F 7.3 °F 1017.8 in Calm     84 % 0.0 in 0.0 W/m2 CLR
19:36 9.7 °F 7.2 °F 1017.8 in Calm     84 % 0.0 in 0.0 W/m2 CLR
19:41 9.7 °F 7.1 °F 1017.8 in SW 4.8 mph 4.8 mph 84 % 0.0 in 0.0 W/m2 CLR
19:46 9.7 °F 7.1 °F 1017.8 in Calm     84 % 0.0 in 0.0 W/m2 CLR
19:51 9.5 °F 6.9 °F 1017.8 in Calm     84 % 0.0 in 0.0 W/m2 CLR
19:56 9.3 °F 6.9 °F 1017.8 in WSW 7.4 mph 7.4 mph 85 % 0.0 in 0.0 W/m2 CLR
20:01 9.2 °F 6.8 °F 1017.8 in WSW 5.6 mph 5.6 mph 85 % 0.0 in 0.0 W/m2 CLR
20:06 9.2 °F 6.8 °F 1017.8 in Calm     85 % 0.0 in 0.0 W/m2 CLR
20:11 9.2 °F 6.8 °F 1017.8 in Calm     85 % 0.0 in 0.0 W/m2 CLR
20:16 9.2 °F 6.8 °F 1017.5 in Calm     85 % 0.0 in 0.0 W/m2 CLR
20:21 9.0 °F 6.6 °F 1017.5 in Calm     85 % 0.0 in 0.0 W/m2 CLR
20:26 8.9 °F 6.7 °F 1017.5 in Calm     86 % 0.0 in 0.0 W/m2 CLR
20:31 8.9 °F 6.7 °F 1017.5 in Calm     86 % 0.0 in 0.0 W/m2 CLR
20:36 8.9 °F 6.7 °F 1017.5 in Calm     86 % 0.0 in 0.0 W/m2 CLR
20:41 8.9 °F 6.7 °F 1017.5 in SW 9.3 mph 9.3 mph 86 % 0.0 in 0.0 W/m2 CLR
20:46 9.1 °F 6.7 °F 1017.2 in WSW 7.4 mph 7.4 mph 85 % 0.0 in 0.0 W/m2 CLR
20:51 9.0 °F 6.6 °F 1017.5 in Calm     85 % 0.0 in 0.0 W/m2 CLR
20:56 9.1 °F 6.7 °F 1017.5 in Calm     85 % 0.0 in 0.0 W/m2 CLR
21:01 9.0 °F 6.4 °F 1017.5 in Calm     84 % 0.0 in 0.0 W/m2 CLR
21:06 9.0 °F 6.6 °F 1017.5 in Calm     85 % 0.0 in 0.0 W/m2 CLR
21:11 9.1 °F 6.7 °F 1017.5 in Calm     85 % 0.0 in 0.0 W/m2 CLR
21:16 9.1 °F 6.5 °F 1017.5 in Calm     84 % 0.0 in 0.0 W/m2 CLR
21:21 9.4 °F 6.8 °F 1017.5 in West 1.9 mph 1.9 mph 84 % 0.0 in 0.0 W/m2 CLR
21:26 10.1 °F 7.2 °F 1017.5 in West 13.0 mph 13.0 mph 82 % 0.0 in 0.0 W/m2 CLR
21:31 11.9 °F 7.7 °F 1017.5 in West 16.7 mph 16.7 mph 75 % 0.0 in 0.0 W/m2 CLR
21:36 12.8 °F 7.7 °F 1017.5 in WNW 16.7 mph 16.7 mph 71 % 0.0 in 0.0 W/m2 CLR
21:41 12.9 °F 7.6 °F 1017.8 in WNW 11.1 mph 11.1 mph 70 % 0.0 in 0.0 W/m2 CLR
21:46 12.9 °F 7.6 °F 1017.8 in WNW 11.1 mph 11.1 mph 70 % 0.0 in 0.0 W/m2 CLR
21:51 12.9 °F 7.6 °F 1017.8 in WNW 14.8 mph 14.8 mph 70 % 0.0 in 0.0 W/m2 CLR
21:56 12.9 °F 7.8 °F 1017.8 in WNW 11.1 mph 11.1 mph 71 % 0.0 in 0.0 W/m2 CLR
22:01 12.9 °F 7.8 °F 1018.2 in WNW 14.8 mph 14.8 mph 71 % 0.0 in 0.0 W/m2 CLR
22:06 13.0 °F 7.9 °F 1018.2 in WNW 13.0 mph 13.0 mph 71 % 0.0 in 0.0 W/m2 CLR
22:11 13.1 °F 7.9 °F 1018.2 in West 11.1 mph 11.1 mph 71 % 0.0 in 0.0 W/m2 CLR
22:16 13.2 °F 7.9 °F 1018.2 in West 16.7 mph 16.7 mph 70 % 0.0 in 0.0 W/m2 CLR
22:21 13.2 °F 7.9 °F 1018.2 in WNW 16.7 mph 16.7 mph 70 % 0.0 in 0.0 W/m2 CLR
22:26 13.1 °F 7.9 °F 1018.5 in WNW 11.1 mph 11.1 mph 71 % 0.0 in 0.0 W/m2 CLR
22:31 12.8 °F 7.8 °F 1018.5 in NW 20.4 mph 20.4 mph 72 % 0.0 in 0.0 W/m2 CLR
22:36 12.7 °F 7.7 °F 1018.5 in WNW 8.0 mph 8.0 mph 72 % 0.0 in 0.0 W/m2 CLR
22:41 12.6 °F 7.8 °F 1018.5 in WNW 14.5 mph 14.5 mph 73 % 0.0 in 0.0 W/m2 CLR
22:46 12.4 °F 7.7 °F 1018.2 in WNW 9.3 mph 9.3 mph 73 % 0.0 in 0.0 W/m2 CLR
22:51 12.3 °F 7.8 °F 1018.2 in WNW 18.5 mph 18.5 mph 74 % 0.0 in 0.0 W/m2 CLR
22:56 12.3 °F 7.8 °F 1018.2 in WNW 9.3 mph 9.3 mph 74 % 0.0 in 0.0 W/m2 CLR
23:01 12.3 °F 7.8 °F 1018.2 in West 13.0 mph 13.0 mph 74 % 0.0 in 0.0 W/m2 CLR
23:06 12.1 °F 7.6 °F 1018.2 in West 14.5 mph 14.5 mph 74 % 0.0 in 0.0 W/m2 CLR
23:11 12.2 °F 7.9 °F 1018.2 in West 18.5 mph 18.5 mph 75 % 0.0 in 0.0 W/m2 CLR
23:16 12.2 °F 7.7 °F 1018.2 in West 16.7 mph 16.7 mph 74 % 0.0 in 0.0 W/m2 CLR
23:21 12.2 °F 7.7 °F 1018.2 in West 14.8 mph 14.8 mph 74 % 0.0 in 0.0 W/m2 CLR
23:26 12.2 °F 7.7 °F 1017.8 in West 18.5 mph 18.5 mph 74 % 0.0 in 0.0 W/m2 CLR
23:31 12.1 °F 7.6 °F 1017.8 in West 16.7 mph 16.7 mph 74 % 0.0 in 0.0 W/m2 CLR
23:36 12.2 °F 7.7 °F 1018.2 in West 14.8 mph 14.8 mph 74 % 0.0 in 0.0 W/m2 CLR
23:42 12.1 °F 7.6 °F 1018.2 in West 12.9 mph 12.9 mph 74 % 0.0 in 0.0 W/m2 CLR
23:47 12.2 °F 7.7 °F 1017.8 in West 19.3 mph 19.3 mph 74 % 0.0 in 0.0 W/m2 CLR
23:52 12.4 °F 7.7 °F 1017.8 in WNW 22.2 mph 22.2 mph 73 % 0.0 in 0.0 W/m2 CLR
23:57 12.4 °F 7.7 °F 1017.8 in West 22.2 mph 22.2 mph 73 % 0.0 in 0.0 W/m2 CLR
Lo Temps de Massalio
Compliments of Weather Underground - 1.25 mb